Time;durP1;ratioP1;P1;durP2;ratioP2;P2;SDS_P1;SDS_P2;PMS_P1;PMS_P2;Temp;Humidity;BMP_temperature;BMP_pressure;BME280_temperature;BME280_humidity;BME280_pressure;Samples;Min_cycle;Max_cycle;Signal;HPM_P1;HPM_P2
2022/11/24 00:00:23;;;;;;;;;;;1.20;99.90;;;;;;5032498;28;19935;-79
2022/11/24 00:02:49;;;;;;;;;;;1.20;99.90;;;;;;5016608;28;20012;-79
2022/11/24 00:05:14;;;;;;;;;;;1.20;99.90;;;;;;5027811;28;19920;-79
2022/11/24 00:07:40;;;;;;;;;;;1.20;99.90;;;;;;5025276;28;19964;-81
2022/11/24 00:10:05;;;;;;;;;;;1.20;99.90;;;;;;4998752;28;20374;-80
2022/11/24 00:22:05;;;;;;;;;;;1.10;99.90;;;;;;5032912;28;19917;-81
2022/11/24 00:24:31;;;;;;;;;;;1.10;99.90;;;;;;5032418;28;19909;-82
2022/11/24 00:26:56;;;;;;;;;;;1.10;99.90;;;;;;5033372;28;19924;-83
2022/11/24 00:29:22;;;;;;;;;;;1.10;99.90;;;;;;5031604;28;19913;-83
2022/11/24 00:31:47;;;;;;;;;;;1.20;99.90;;;;;;5039512;28;20052;-82
2022/11/24 00:34:13;;;;;;;;;;;1.20;99.90;;;;;;5040089;28;19920;-82
2022/11/24 00:36:39;;;;;;;;;;;1.10;99.90;;;;;;5040689;28;19971;-83
2022/11/24 00:39:14;;;;;;;;;;;1.20;99.90;;;;;;5041704;28;20354;-82
2022/11/24 00:41:40;;;;;;;;;;;1.20;99.90;;;;;;5039377;28;19955;-83
2022/11/24 00:44:06;;;;;;;;;;;1.20;99.90;;;;;;5037768;28;19917;-83
2022/11/24 00:46:32;;;;;;;;;;;1.20;99.90;;;;;;5021433;28;19924;-83
2022/11/24 00:48:59;;;;;;;;;;;1.20;99.90;;;;;;5039994;28;19914;-82
2022/11/24 00:51:29;;;;;;;;;;;1.20;99.90;;;;;;5040765;28;20289;-82
2022/11/24 00:53:55;;;;;;;;;;;1.20;99.90;;;;;;5038636;28;19913;-83
2022/11/24 00:56:21;;;;;;;;;;;1.10;99.90;;;;;;5041719;28;20004;-83
2022/11/24 00:58:46;;;;;;;;;;;1.10;99.90;;;;;;5039995;28;20387;-83
2022/11/24 01:01:12;;;;;;;;;;;1.10;99.90;;;;;;5039861;28;19939;-81
2022/11/24 01:03:38;;;;;;;;;;;1.10;99.90;;;;;;5041267;28;19996;-83
2022/11/24 01:06:08;;;;;;;;;;;1.00;99.90;;;;;;5040147;28;19913;-83
2022/11/24 01:08:35;;;;;;;;;;;1.10;99.90;;;;;;5040376;28;19909;-84
2022/11/24 01:11:10;;;;;;;;;;;1.10;99.90;;;;;;5041447;28;19909;-82
2022/11/24 01:13:36;;;;;;;;;;;1.00;99.90;;;;;;5057494;28;19916;-83
2022/11/24 01:16:02;;;;;;;;;;;1.10;99.90;;;;;;5040209;28;19917;-82
2022/11/24 01:18:27;;;;;;;;;;;1.10;99.90;;;;;;5040206;28;19920;-83
2022/11/24 01:20:53;;;;;;;;;;;1.10;99.90;;;;;;5041677;28;19913;-84
2022/11/24 01:23:18;;;;;;;;;;;1.10;99.90;;;;;;5040077;28;19916;-83
2022/11/24 01:25:44;;;;;;;;;;;1.10;99.90;;;;;;5040129;28;19909;-84
2022/11/24 01:28:09;;;;;;;;;;;1.10;99.90;;;;;;5024316;28;19919;-84
2022/11/24 01:30:35;;;;;;;;;;;1.10;99.90;;;;;;5023696;28;19945;-83
2022/11/24 01:33:00;;;;;;;;;;;1.10;99.90;;;;;;5023484;28;20403;-82
2022/11/24 01:35:26;;;;;;;;;;;1.10;99.90;;;;;;5041288;28;20353;-83
2022/11/24 01:37:52;;;;;;;;;;;1.10;99.90;;;;;;5021445;28;19920;-83
2022/11/24 01:40:17;;;;;;;;;;;1.10;99.90;;;;;;5039999;28;19922;-82
2022/11/24 01:42:47;;;;;;;;;;;1.10;99.90;;;;;;5035676;28;19921;-83
2022/11/24 01:45:25;;;;;;;;;;;1.10;99.90;;;;;;5036877;28;19917;-83
2022/11/24 01:47:51;;;;;;;;;;;1.10;99.90;;;;;;5036805;28;20055;-82
2022/11/24 01:50:17;;;;;;;;;;;1.10;99.90;;;;;;5036420;28;19970;-82
2022/11/24 01:52:45;;;;;;;;;;;1.10;99.90;;;;;;5035453;28;19914;-83
2022/11/24 01:55:20;;;;;;;;;;;1.10;99.90;;;;;;5037558;28;19913;-83
2022/11/24 01:57:55;;;;;;;;;;;1.10;99.90;;;;;;5037784;28;20285;-82
2022/11/24 02:00:21;;;;;;;;;;;1.10;99.90;;;;;;5036418;28;19920;-82
2022/11/24 02:02:46;;;;;;;;;;;1.10;99.90;;;;;;5019870;28;19914;-83
2022/11/24 02:05:18;;;;;;;;;;;1.10;99.90;;;;;;5040483;28;19968;-84
2022/11/24 02:07:44;;;;;;;;;;;1.10;99.90;;;;;;5040313;28;19913;-84
2022/11/24 02:10:12;;;;;;;;;;;1.10;99.90;;;;;;5023040;28;19971;-84
2022/11/24 02:12:39;;;;;;;;;;;1.10;99.90;;;;;;5040308;28;20324;-84
2022/11/24 02:15:05;;;;;;;;;;;1.10;99.90;;;;;;5041724;28;19909;-84
2022/11/24 02:17:31;;;;;;;;;;;1.10;99.90;;;;;;5037691;28;20372;-83
2022/11/24 02:19:57;;;;;;;;;;;1.10;99.90;;;;;;5039950;28;19917;-84
2022/11/24 02:22:34;;;;;;;;;;;1.10;99.90;;;;;;5039311;28;19909;-84
2022/11/24 02:25:00;;;;;;;;;;;1.10;99.90;;;;;;5038620;28;19909;-83
2022/11/24 02:27:25;;;;;;;;;;;1.10;99.90;;;;;;5037369;28;20262;-83
2022/11/24 02:29:51;;;;;;;;;;;1.10;99.90;;;;;;5040141;28;20365;-84
2022/11/24 02:32:17;;;;;;;;;;;1.10;99.90;;;;;;5037796;28;19925;-84
2022/11/24 02:34:43;;;;;;;;;;;1.10;99.90;;;;;;5022626;28;19940;-83
2022/11/24 02:37:08;;;;;;;;;;;1.10;99.90;;;;;;5019015;28;19913;-83
2022/11/24 02:39:34;;;;;;;;;;;1.10;99.90;;;;;;5037114;28;19909;-82
2022/11/24 02:42:01;;;;;;;;;;;1.10;99.90;;;;;;5016819;28;19913;-83
2022/11/24 02:44:30;;;;;;;;;;;1.10;99.90;;;;;;5035607;28;19921;-83
2022/11/24 02:47:06;;;;;;;;;;;1.10;99.90;;;;;;5037108;28;19948;-83
2022/11/24 02:49:31;;;;;;;;;;;1.10;99.90;;;;;;5034763;28;19928;-82
2022/11/24 02:51:57;;;;;;;;;;;1.00;99.90;;;;;;5017979;28;19913;-83
2022/11/24 02:54:22;;;;;;;;;;;1.00;99.90;;;;;;5036274;28;19920;-82
2022/11/24 02:56:50;;;;;;;;;;;1.00;99.90;;;;;;5018827;28;20466;-83
2022/11/24 02:59:16;;;;;;;;;;;1.00;99.90;;;;;;5035798;28;20366;-83
2022/11/24 03:01:41;;;;;;;;;;;1.00;99.90;;;;;;5035045;28;20389;-83
2022/11/24 03:04:07;;;;;;;;;;;1.00;99.90;;;;;;5036693;28;19932;-83
2022/11/24 03:06:32;;;;;;;;;;;1.00;99.90;;;;;;5035177;28;20008;-83
2022/11/24 03:08:58;;;;;;;;;;;1.10;99.90;;;;;;5018463;28;19920;-83
2022/11/24 03:11:23;;;;;;;;;;;1.00;99.90;;;;;;5018676;28;19913;-83
2022/11/24 03:13:49;;;;;;;;;;;1.00;99.90;;;;;;5035718;28;19920;-83
2022/11/24 03:16:14;;;;;;;;;;;1.00;99.90;;;;;;5018642;28;20003;-82
2022/11/24 03:18:40;;;;;;;;;;;1.10;99.90;;;;;;5019112;28;19921;-82
2022/11/24 03:21:05;;;;;;;;;;;1.10;99.90;;;;;;5035969;28;19972;-82
2022/11/24 03:23:31;;;;;;;;;;;1.10;99.90;;;;;;5019033;28;19975;-82
2022/11/24 03:26:10;;;;;;;;;;;1.10;99.90;;;;;;5035585;28;19971;-82
2022/11/24 03:28:35;;;;;;;;;;;1.10;99.90;;;;;;5050515;28;19910;-82
2022/11/24 03:31:01;;;;;;;;;;;1.20;99.90;;;;;;5034957;28;20012;-82
2022/11/24 03:33:27;;;;;;;;;;;1.20;99.90;;;;;;5034504;28;19960;-82
2022/11/24 03:35:52;;;;;;;;;;;1.20;99.90;;;;;;5035162;28;20381;-83
2022/11/24 03:38:18;;;;;;;;;;;1.20;99.90;;;;;;5034659;28;19981;-82
2022/11/24 03:40:43;;;;;;;;;;;1.20;99.90;;;;;;5036339;28;20259;-82
2022/11/24 03:43:09;;;;;;;;;;;1.20;99.90;;;;;;5036518;28;20274;-83
2022/11/24 03:45:35;;;;;;;;;;;1.20;99.90;;;;;;5036039;28;19970;-83
2022/11/24 03:48:00;;;;;;;;;;;1.20;99.90;;;;;;5037041;28;19941;-84
2022/11/24 03:50:26;;;;;;;;;;;1.10;99.90;;;;;;5037429;28;19909;-83
2022/11/24 03:52:51;;;;;;;;;;;1.10;99.90;;;;;;5036309;28;20379;-82
2022/11/24 03:55:17;;;;;;;;;;;1.10;99.90;;;;;;5017797;28;20293;-83
2022/11/24 03:57:42;;;;;;;;;;;1.10;99.90;;;;;;5033553;28;19959;-81
2022/11/24 04:00:08;;;;;;;;;;;1.10;99.90;;;;;;5016082;28;19967;-83
2022/11/24 04:02:34;;;;;;;;;;;1.10;99.90;;;;;;5034648;28;19913;-82
2022/11/24 04:04:59;;;;;;;;;;;1.10;99.90;;;;;;5033990;28;19935;-83
2022/11/24 04:07:25;;;;;;;;;;;1.00;99.90;;;;;;5034429;28;19940;-82
2022/11/24 04:09:50;;;;;;;;;;;1.10;99.90;;;;;;5017827;28;19913;-83
2022/11/24 04:15:00;;;;;;;;;;;1.10;99.90;;;;;;5034987;28;19920;-83
2022/11/24 04:17:27;;;;;;;;;;;1.10;99.90;;;;;;5034571;28;19913;-83
2022/11/24 04:19:52;;;;;;;;;;;1.10;99.90;;;;;;5036472;28;19910;-85
2022/11/24 04:22:21;;;;;;;;;;;1.10;99.90;;;;;;5016240;28;19913;-84
2022/11/24 04:24:46;;;;;;;;;;;1.10;99.90;;;;;;5018035;28;19913;-85
2022/11/24 04:27:12;;;;;;;;;;;1.10;99.90;;;;;;4999101;28;19940;-83
2022/11/24 04:29:38;;;;;;;;;;;1.10;99.90;;;;;;5019552;28;19931;-84
2022/11/24 04:32:03;;;;;;;;;;;1.10;99.90;;;;;;5034283;28;20344;-83
2022/11/24 04:34:29;;;;;;;;;;;1.10;99.90;;;;;;5033456;28;20004;-83
2022/11/24 04:36:55;;;;;;;;;;;1.10;99.90;;;;;;5033395;28;20020;-83
2022/11/24 04:39:20;;;;;;;;;;;1.10;99.90;;;;;;5034994;28;19913;-83
2022/11/24 04:41:46;;;;;;;;;;;1.20;99.90;;;;;;5018905;28;19913;-83
2022/11/24 04:44:11;;;;;;;;;;;1.20;99.90;;;;;;5034660;28;19925;-83
2022/11/24 04:46:37;;;;;;;;;;;1.10;99.90;;;;;;5017048;28;19963;-83
2022/11/24 04:49:03;;;;;;;;;;;1.20;99.90;;;;;;5033612;28;19913;-84
2022/11/24 04:51:28;;;;;;;;;;;1.20;99.90;;;;;;5017101;28;19921;-84
2022/11/24 04:53:54;;;;;;;;;;;1.20;99.90;;;;;;5034286;28;19975;-84
2022/11/24 04:56:19;;;;;;;;;;;1.20;99.90;;;;;;5016465;28;19919;-84
2022/11/24 04:58:48;;;;;;;;;;;1.10;99.90;;;;;;5014667;28;19921;-83
2022/11/24 05:01:14;;;;;;;;;;;1.10;99.90;;;;;;5034108;28;20332;-83
2022/11/24 05:03:39;;;;;;;;;;;1.10;99.90;;;;;;5034947;28;19910;-83
2022/11/24 05:06:05;;;;;;;;;;;1.10;99.90;;;;;;5017521;28;19967;-82
2022/11/24 05:08:31;;;;;;;;;;;1.10;99.90;;;;;;5031970;28;19909;-84
2022/11/24 05:10:57;;;;;;;;;;;1.10;99.90;;;;;;5031490;28;19919;-82
2022/11/24 05:13:22;;;;;;;;;;;1.20;99.90;;;;;;5016152;28;19920;-81
2022/11/24 05:15:48;;;;;;;;;;;1.20;99.90;;;;;;5017275;28;19913;-82
2022/11/24 05:18:15;;;;;;;;;;;1.20;99.90;;;;;;5037873;28;19920;-81
2022/11/24 05:20:43;;;;;;;;;;;1.20;99.90;;;;;;5040038;28;20051;-81
2022/11/24 05:23:09;;;;;;;;;;;1.20;99.90;;;;;;5038630;28;19909;-80
2022/11/24 05:25:35;;;;;;;;;;;1.20;99.90;;;;;;5039752;28;20012;-81
2022/11/24 05:28:07;;;;;;;;;;;1.20;99.90;;;;;;5038428;28;19913;-80
2022/11/24 05:30:35;;;;;;;;;;;1.20;99.90;;;;;;5037964;28;19959;-81
2022/11/24 05:33:03;;;;;;;;;;;1.20;99.90;;;;;;5039089;28;20320;-79
2022/11/24 05:35:29;;;;;;;;;;;1.30;99.90;;;;;;5039458;28;20009;-80
2022/11/24 05:37:54;;;;;;;;;;;1.30;99.90;;;;;;5039194;28;19974;-80
2022/11/24 05:40:20;;;;;;;;;;;1.30;99.90;;;;;;5037767;28;19913;-80
2022/11/24 05:42:46;;;;;;;;;;;1.30;99.90;;;;;;5036034;28;19913;-81
2022/11/24 05:45:13;;;;;;;;;;;1.20;99.90;;;;;;5038800;28;19932;-81
2022/11/24 05:47:39;;;;;;;;;;;1.20;99.90;;;;;;5038994;28;19917;-81
2022/11/24 05:50:05;;;;;;;;;;;1.20;99.90;;;;;;5039173;28;19913;-81
2022/11/24 05:52:31;;;;;;;;;;;1.20;99.90;;;;;;5040413;28;20234;-81
2022/11/24 05:54:57;;;;;;;;;;;1.20;99.90;;;;;;5038358;28;19909;-81
2022/11/24 05:57:22;;;;;;;;;;;1.20;99.90;;;;;;5039678;28;19944;-80
2022/11/24 05:59:48;;;;;;;;;;;1.20;99.90;;;;;;5022232;28;19913;-81
2022/11/24 06:02:13;;;;;;;;;;;1.20;99.90;;;;;;5038318;28;20329;-81
2022/11/24 06:04:39;;;;;;;;;;;1.30;99.90;;;;;;5038351;28;19948;-80
2022/11/24 06:07:08;;;;;;;;;;;1.30;99.90;;;;;;5039435;28;19917;-80
2022/11/24 06:09:35;;;;;;;;;;;1.30;99.90;;;;;;5039007;28;19909;-81
2022/11/24 06:12:00;;;;;;;;;;;1.40;99.90;;;;;;5039238;28;19920;-80
2022/11/24 06:14:26;;;;;;;;;;;1.40;99.90;;;;;;5021049;28;20365;-81
2022/11/24 06:16:51;;;;;;;;;;;1.40;99.90;;;;;;5021717;28;19924;-80
2022/11/24 06:19:17;;;;;;;;;;;1.40;99.90;;;;;;5038454;28;19910;-81
2022/11/24 06:21:42;;;;;;;;;;;1.40;99.90;;;;;;5037335;28;20010;-80
2022/11/24 06:24:08;;;;;;;;;;;1.40;99.90;;;;;;5038275;28;19913;-81
2022/11/24 06:26:33;;;;;;;;;;;1.40;99.90;;;;;;5038085;28;19924;-81
2022/11/24 06:28:59;;;;;;;;;;;1.40;99.90;;;;;;5020116;28;19913;-80
2022/11/24 06:31:25;;;;;;;;;;;1.50;99.90;;;;;;5037759;28;19936;-81
2022/11/24 06:33:50;;;;;;;;;;;1.40;99.90;;;;;;5038477;28;19910;-82
2022/11/24 06:36:16;;;;;;;;;;;1.40;99.90;;;;;;5036938;28;19979;-81
2022/11/24 06:38:41;;;;;;;;;;;1.40;99.90;;;;;;5035076;28;20023;-81
2022/11/24 06:41:10;;;;;;;;;;;1.40;99.90;;;;;;5018680;28;19913;-80
2022/11/24 06:43:35;;;;;;;;;;;1.40;99.90;;;;;;5018191;28;19914;-80
2022/11/24 06:46:01;;;;;;;;;;;1.40;99.90;;;;;;5033028;28;19941;-80
2022/11/24 06:48:27;;;;;;;;;;;1.40;99.90;;;;;;5017280;28;19996;-81
2022/11/24 06:50:52;;;;;;;;;;;1.40;99.90;;;;;;5016576;28;19913;-82
2022/11/24 06:53:18;;;;;;;;;;;1.50;99.90;;;;;;5028244;28;20377;-81
2022/11/24 06:55:44;;;;;;;;;;;1.40;99.90;;;;;;5037145;28;19913;-81
2022/11/24 06:58:10;;;;;;;;;;;1.40;99.90;;;;;;5035908;28;20000;-80
2022/11/24 07:00:36;;;;;;;;;;;1.30;99.90;;;;;;5035720;28;19913;-82
2022/11/24 07:03:01;;;;;;;;;;;1.30;99.90;;;;;;5035646;28;19913;-81
2022/11/24 07:05:27;;;;;;;;;;;1.30;99.90;;;;;;5018201;28;19959;-81
2022/11/24 07:07:53;;;;;;;;;;;1.20;99.90;;;;;;5032656;28;20377;-81
2022/11/24 07:10:19;;;;;;;;;;;1.20;99.90;;;;;;5036316;28;19909;-81
2022/11/24 07:12:44;;;;;;;;;;;1.20;99.90;;;;;;5018431;28;19920;-81
2022/11/24 07:15:10;;;;;;;;;;;1.20;99.90;;;;;;5018532;28;20003;-81
2022/11/24 07:17:36;;;;;;;;;;;1.20;99.90;;;;;;5036268;28;20000;-80
2022/11/24 07:20:03;;;;;;;;;;;1.20;99.90;;;;;;5035316;28;20356;-82
2022/11/24 07:22:28;;;;;;;;;;;1.20;99.90;;;;;;5017357;28;20263;-82
2022/11/24 07:24:54;;;;;;;;;;;1.20;99.90;;;;;;5017971;28;19967;-81
2022/11/24 07:27:19;;;;;;;;;;;1.20;99.90;;;;;;5035155;28;19921;-81
2022/11/24 07:29:45;;;;;;;;;;;1.20;99.90;;;;;;5034147;28;19914;-81
2022/11/24 07:32:10;;;;;;;;;;;1.20;99.90;;;;;;5018121;28;19963;-81
2022/11/24 07:34:36;;;;;;;;;;;1.20;99.90;;;;;;5035975;28;19914;-81
2022/11/24 07:37:01;;;;;;;;;;;1.20;99.90;;;;;;5034480;28;19976;-81
2022/11/24 07:39:27;;;;;;;;;;;1.20;99.90;;;;;;5034393;28;19963;-82
2022/11/24 07:41:53;;;;;;;;;;;1.30;99.90;;;;;;5036698;28;19920;-82
2022/11/24 07:44:18;;;;;;;;;;;1.30;99.90;;;;;;5036576;28;19964;-81
2022/11/24 07:46:44;;;;;;;;;;;1.30;99.90;;;;;;5037309;28;19963;-82
2022/11/24 07:49:09;;;;;;;;;;;1.30;99.90;;;;;;5052940;28;20019;-82
2022/11/24 07:51:35;;;;;;;;;;;1.40;99.90;;;;;;5036248;28;19936;-82
2022/11/24 07:54:01;;;;;;;;;;;1.40;99.90;;;;;;5037184;28;19913;-81
2022/11/24 07:56:26;;;;;;;;;;;1.40;99.90;;;;;;5036467;28;20266;-82
2022/11/24 07:58:52;;;;;;;;;;;1.40;99.90;;;;;;5035877;28;19909;-82
2022/11/24 08:01:18;;;;;;;;;;;1.40;99.90;;;;;;5019323;28;20009;-82
2022/11/24 08:03:44;;;;;;;;;;;1.40;99.90;;;;;;5036979;28;19980;-82
2022/11/24 08:06:11;;;;;;;;;;;1.50;99.90;;;;;;5035264;28;19921;-81
2022/11/24 08:08:36;;;;;;;;;;;1.50;99.90;;;;;;5035126;28;19916;-82
2022/11/24 08:11:03;;;;;;;;;;;1.50;99.90;;;;;;5018468;28;20288;-82
2022/11/24 08:13:28;;;;;;;;;;;1.60;99.90;;;;;;5035222;28;19910;-81
2022/11/24 08:15:54;;;;;;;;;;;1.60;99.90;;;;;;5018699;28;19920;-81
2022/11/24 08:18:21;;;;;;;;;;;1.60;99.90;;;;;;5035355;28;19958;-83
2022/11/24 08:20:46;;;;;;;;;;;1.60;99.90;;;;;;5018622;28;19913;-82
2022/11/24 08:23:12;;;;;;;;;;;1.60;99.90;;;;;;5018729;28;20388;-82
2022/11/24 08:25:37;;;;;;;;;;;1.60;99.90;;;;;;5035040;28;19913;-81
2022/11/24 08:28:03;;;;;;;;;;;1.70;99.90;;;;;;5036733;28;20020;-82
2022/11/24 08:30:29;;;;;;;;;;;1.70;99.90;;;;;;5018589;28;19913;-82
2022/11/24 08:32:57;;;;;;;;;;;1.70;99.90;;;;;;5050803;28;19925;-81
2022/11/24 08:35:22;;;;;;;;;;;1.70;99.90;;;;;;5035605;28;19932;-81
2022/11/24 08:37:48;;;;;;;;;;;1.70;99.90;;;;;;5036141;28;19995;-82
2022/11/24 08:40:14;;;;;;;;;;;1.70;99.90;;;;;;5050266;28;20299;-82
2022/11/24 08:42:39;;;;;;;;;;;1.80;99.90;;;;;;5033897;28;20270;-82
2022/11/24 08:45:05;;;;;;;;;;;1.80;99.90;;;;;;5016719;28;19956;-82
2022/11/24 08:47:31;;;;;;;;;;;1.90;99.90;;;;;;5034861;28;19917;-82
2022/11/24 08:49:56;;;;;;;;;;;1.90;99.90;;;;;;5014462;28;19976;-82
2022/11/24 08:52:22;;;;;;;;;;;2.00;99.90;;;;;;5017164;28;20274;-82
2022/11/24 08:54:47;;;;;;;;;;;2.00;99.90;;;;;;5037170;28;20293;-82
2022/11/24 08:57:13;;;;;;;;;;;2.10;99.90;;;;;;5037191;28;19914;-82
2022/11/24 08:59:39;;;;;;;;;;;2.10;99.90;;;;;;5038393;28;20079;-82
2022/11/24 09:02:05;;;;;;;;;;;2.20;99.90;;;;;;5020916;28;20008;-83
2022/11/24 09:04:30;;;;;;;;;;;2.30;99.90;;;;;;5037598;28;19972;-82
2022/11/24 09:06:56;;;;;;;;;;;2.40;99.90;;;;;;5038427;28;19936;-82
2022/11/24 09:09:22;;;;;;;;;;;2.50;99.90;;;;;;5036413;28;19924;-83
2022/11/24 09:11:47;;;;;;;;;;;2.60;99.90;;;;;;5020120;28;20280;-82
2022/11/24 09:14:13;;;;;;;;;;;2.60;99.90;;;;;;5037967;28;19925;-82
2022/11/24 09:16:38;;;;;;;;;;;2.60;99.90;;;;;;5038643;28;19948;-83
2022/11/24 09:19:06;;;;;;;;;;;2.70;99.90;;;;;;5037174;28;19914;-82
2022/11/24 09:21:36;;;;;;;;;;;2.80;99.90;;;;;;5038857;28;19914;-82
2022/11/24 09:24:02;;;;;;;;;;;2.80;99.90;;;;;;5037281;28;19999;-82
2022/11/24 09:26:31;;;;;;;;;;;2.90;99.90;;;;;;5020998;28;20012;-81
2022/11/24 09:28:58;;;;;;;;;;;3.10;99.90;;;;;;5036980;28;19920;-82
2022/11/24 09:31:25;;;;;;;;;;;3.20;99.90;;;;;;5020607;28;19963;-81
2022/11/24 09:33:51;;;;;;;;;;;3.30;99.90;;;;;;5038583;28;19983;-83
2022/11/24 09:36:17;;;;;;;;;;;3.30;99.90;;;;;;5037082;28;20018;-83
2022/11/24 09:38:43;;;;;;;;;;;3.40;99.90;;;;;;5040227;28;19932;-83
2022/11/24 09:41:27;;;;;;;;;;;3.40;99.90;;;;;;5047915;28;19913;-83
2022/11/24 09:43:59;;;;;;;;;;;3.50;99.90;;;;;;5039996;28;19987;-83
2022/11/24 09:46:40;;;;;;;;;;;3.40;99.90;;;;;;5040907;28;19917;-83
2022/11/24 09:49:08;;;;;;;;;;;3.40;99.90;;;;;;5039433;28;19913;-82
2022/11/24 09:51:35;;;;;;;;;;;3.40;99.90;;;;;;5040576;28;19909;-83
2022/11/24 09:54:21;;;;;;;;;;;3.40;99.90;;;;;;5040240;28;19963;-83
2022/11/24 09:56:50;;;;;;;;;;;3.50;99.90;;;;;;5039125;28;19955;-82
2022/11/24 09:59:16;;;;;;;;;;;3.50;99.90;;;;;;5039805;28;20039;-83
2022/11/24 10:01:43;;;;;;;;;;;3.50;99.90;;;;;;5038637;28;19919;-83
2022/11/24 10:04:12;;;;;;;;;;;3.50;99.90;;;;;;5037037;28;19916;-83
2022/11/24 10:06:49;;;;;;;;;;;3.50;99.90;;;;;;5037793;28;19913;-82
2022/11/24 10:09:21;;;;;;;;;;;3.60;99.90;;;;;;5038661;28;19909;-82
2022/11/24 10:12:12;;;;;;;;;;;3.60;99.90;;;;;;5038910;28;19909;-83
2022/11/24 10:14:38;;;;;;;;;;;3.70;99.90;;;;;;5037524;28;19999;-83
2022/11/24 10:17:06;;;;;;;;;;;3.70;99.90;;;;;;5037056;28;19955;-82
2022/11/24 10:19:35;;;;;;;;;;;3.70;99.90;;;;;;5037683;28;19919;-83
2022/11/24 10:22:05;;;;;;;;;;;3.70;99.90;;;;;;5036497;28;19916;-82
2022/11/24 10:24:31;;;;;;;;;;;3.70;99.90;;;;;;5038866;28;19910;-82
2022/11/24 10:27:01;;;;;;;;;;;3.70;99.90;;;;;;5037398;28;19920;-82
2022/11/24 10:29:32;;;;;;;;;;;3.70;99.90;;;;;;5036720;28;19996;-82
2022/11/24 10:31:59;;;;;;;;;;;3.60;99.90;;;;;;5038483;28;19909;-82
2022/11/24 10:34:31;;;;;;;;;;;3.60;99.90;;;;;;5037364;28;20014;-82
2022/11/24 10:37:15;;;;;;;;;;;3.60;99.90;;;;;;5038328;28;20000;-82
2022/11/24 10:39:52;;;;;;;;;;;3.70;99.90;;;;;;5038119;28;19917;-81
2022/11/24 10:42:18;;;;;;;;;;;3.70;99.90;;;;;;5037889;28;20374;-81
2022/11/24 10:44:44;;;;;;;;;;;3.70;99.90;;;;;;5036135;28;20012;-81
2022/11/24 10:47:16;;;;;;;;;;;3.80;99.90;;;;;;5036999;28;19917;-81
2022/11/24 10:49:44;;;;;;;;;;;3.90;99.90;;;;;;5037997;28;19909;-82
2022/11/24 10:52:13;;;;;;;;;;;4.00;99.90;;;;;;5038380;28;19999;-82
2022/11/24 10:55:11;;;;;;;;;;;4.10;99.90;;;;;;5036450;28;19914;-81
2022/11/24 10:57:38;;;;;;;;;;;4.20;99.90;;;;;;4993141;28;20284;-82
2022/11/24 11:00:24;;;;;;;;;;;4.30;99.90;;;;;;5038046;28;19951;-81
2022/11/24 11:03:08;;;;;;;;;;;4.40;99.90;;;;;;5027220;28;19909;-80
2022/11/24 11:05:40;;;;;;;;;;;4.50;99.90;;;;;;5036512;28;19909;-82
2022/11/24 11:08:21;;;;;;;;;;;4.60;99.90;;;;;;5037628;28;19913;-82
2022/11/24 11:10:48;;;;;;;;;;;4.50;99.90;;;;;;5036175;28;20400;-80
2022/11/24 11:13:30;;;;;;;;;;;4.50;99.90;;;;;;5036437;28;20385;-82
2022/11/24 11:15:57;;;;;;;;;;;4.50;99.90;;;;;;5037628;28;20373;-81
2022/11/24 11:18:27;;;;;;;;;;;4.60;99.90;;;;;;5038326;28;19976;-82
2022/11/24 11:20:57;;;;;;;;;;;4.60;99.90;;;;;;5036319;28;19954;-81
2022/11/24 11:23:25;;;;;;;;;;;4.60;99.90;;;;;;5037785;28;19999;-81
2022/11/24 11:26:09;;;;;;;;;;;4.60;99.90;;;;;;5035504;28;20266;-80
2022/11/24 11:28:35;;;;;;;;;;;4.60;99.90;;;;;;5036230;28;19920;-81
2022/11/24 11:31:04;;;;;;;;;;;4.50;99.90;;;;;;5036263;28;19917;-81
2022/11/24 11:33:30;;;;;;;;;;;4.50;99.90;;;;;;5035852;28;19956;-80
2022/11/24 11:35:57;;;;;;;;;;;4.40;99.90;;;;;;5037820;28;20254;-81
2022/11/24 11:38:23;;;;;;;;;;;4.30;99.90;;;;;;5035361;28;20304;-79
2022/11/24 11:40:50;;;;;;;;;;;4.30;99.90;;;;;;5036365;28;19945;-81
2022/11/24 11:43:23;;;;;;;;;;;4.20;99.90;;;;;;5038488;28;19913;-81
2022/11/24 11:45:58;;;;;;;;;;;4.20;99.90;;;;;;5038588;28;19939;-81
2022/11/24 11:48:31;;;;;;;;;;;4.20;99.90;;;;;;5038402;28;19952;-81
2022/11/24 11:51:09;;;;;;;;;;;4.20;99.90;;;;;;5038272;28;19909;-81
2022/11/24 11:53:49;;;;;;;;;;;4.20;99.90;;;;;;5037268;28;19909;-81
2022/11/24 11:56:14;;;;;;;;;;;4.20;99.90;;;;;;5037847;28;19909;-81
2022/11/24 11:58:59;;;;;;;;;;;4.20;99.90;;;;;;5036379;28;19909;-81
2022/11/24 12:01:25;;;;;;;;;;;4.20;99.90;;;;;;5036683;28;19916;-81
2022/11/24 12:04:09;;;;;;;;;;;4.10;99.90;;;;;;5036820;28;19909;-81
2022/11/24 12:06:40;;;;;;;;;;;4.10;99.90;;;;;;5038238;28;20435;-81
2022/11/24 12:09:13;;;;;;;;;;;4.10;99.90;;;;;;5037908;28;19909;-81
2022/11/24 12:11:42;;;;;;;;;;;4.00;99.90;;;;;;5037561;28;19916;-81
2022/11/24 12:14:19;;;;;;;;;;;4.00;99.90;;;;;;5037712;28;19995;-80
2022/11/24 12:17:01;;;;;;;;;;;3.90;99.90;;;;;;5036598;28;20357;-80
2022/11/24 12:19:32;;;;;;;;;;;3.70;99.90;;;;;;5036826;28;20428;-80
2022/11/24 12:22:10;;;;;;;;;;;3.60;99.90;;;;;;5038810;28;20369;-82
2022/11/24 12:24:38;;;;;;;;;;;3.50;99.90;;;;;;5053497;28;19909;-82
2022/11/24 12:27:09;;;;;;;;;;;3.40;99.90;;;;;;5052377;28;19952;-81
2022/11/24 12:29:51;;;;;;;;;;;3.40;99.90;;;;;;5032614;28;19913;-82
2022/11/24 12:32:35;;;;;;;;;;;3.40;99.90;;;;;;5035246;28;19913;-81
2022/11/24 12:35:18;;;;;;;;;;;3.30;99.90;;;;;;5035789;28;19975;-80
2022/11/24 12:37:51;;;;;;;;;;;3.30;99.90;;;;;;5032166;28;20357;-80
2022/11/24 12:40:24;;;;;;;;;;;3.20;99.90;;;;;;5033896;28;19913;-80
2022/11/24 12:42:50;;;;;;;;;;;3.20;99.90;;;;;;5035620;28;19909;-80
2022/11/24 12:45:22;;;;;;;;;;;3.20;99.90;;;;;;5037064;28;20285;-80
2022/11/24 12:48:06;;;;;;;;;;;3.20;99.90;;;;;;5036890;28;19913;-80
2022/11/24 12:50:36;;;;;;;;;;;3.20;99.90;;;;;;5036118;28;20448;-81
2022/11/24 12:53:04;;;;;;;;;;;3.30;99.90;;;;;;5035873;28;19916;-79
2022/11/24 12:55:32;;;;;;;;;;;3.30;99.90;;;;;;5035701;28;19916;-80
2022/11/24 12:58:08;;;;;;;;;;;3.30;99.90;;;;;;5036199;28;19909;-80
2022/11/24 13:00:43;;;;;;;;;;;3.40;99.90;;;;;;5036025;28;19952;-81
2022/11/24 13:03:16;;;;;;;;;;;3.50;99.90;;;;;;5034771;28;19920;-80
2022/11/24 13:06:08;;;;;;;;;;;3.50;99.90;;;;;;5032538;28;19920;-80
2022/11/24 13:08:35;;;;;;;;;;;3.50;99.90;;;;;;5025209;28;19917;-80
2022/11/24 13:11:19;;;;;;;;;;;3.40;99.90;;;;;;5034352;28;19917;-80
2022/11/24 13:13:58;;;;;;;;;;;3.40;99.90;;;;;;5017207;28;20353;-80
2022/11/24 13:16:25;;;;;;;;;;;3.40;99.90;;;;;;5051349;28;19996;-80
2022/11/24 13:19:00;;;;;;;;;;;3.40;99.90;;;;;;5033725;28;19913;-80
2022/11/24 13:21:29;;;;;;;;;;;3.40;99.90;;;;;;5036015;28;19916;-79
2022/11/24 13:24:03;;;;;;;;;;;3.40;99.90;;;;;;5036352;28;19958;-80
2022/11/24 13:26:41;;;;;;;;;;;3.40;99.90;;;;;;5037288;28;20010;-81
2022/11/24 13:29:25;;;;;;;;;;;3.40;99.90;;;;;;5034660;28;20281;-80
2022/11/24 13:31:51;;;;;;;;;;;3.40;99.90;;;;;;5034085;28;20290;-81
2022/11/24 13:34:35;;;;;;;;;;;3.40;99.90;;;;;;5036715;28;19920;-80
2022/11/24 13:37:00;;;;;;;;;;;3.40;99.90;;;;;;5036928;28;19909;-80
2022/11/24 13:39:46;;;;;;;;;;;3.40;99.90;;;;;;5037830;28;19915;-81
2022/11/24 13:42:11;;;;;;;;;;;3.40;99.90;;;;;;5039993;28;19916;-80
2022/11/24 13:45:03;;;;;;;;;;;3.40;99.90;;;;;;5033583;28;20008;-80
2022/11/24 13:47:39;;;;;;;;;;;3.40;99.90;;;;;;5035451;28;19913;-80
2022/11/24 13:50:06;;;;;;;;;;;3.40;99.90;;;;;;5040420;28;19915;-80
2022/11/24 13:52:35;;;;;;;;;;;3.40;99.90;;;;;;5035448;28;20448;-80
2022/11/24 13:55:14;;;;;;;;;;;3.40;99.90;;;;;;5039405;28;19940;-80
2022/11/24 13:57:44;;;;;;;;;;;3.40;99.90;;;;;;5038061;28;19967;-80
2022/11/24 14:00:29;;;;;;;;;;;3.40;99.90;;;;;;5040425;28;20054;-80
2022/11/24 14:02:59;;;;;;;;;;;3.40;99.90;;;;;;5039096;28;20353;-79
2022/11/24 14:05:36;;;;;;;;;;;3.30;99.90;;;;;;5039364;28;19913;-81
2022/11/24 14:08:03;;;;;;;;;;;3.30;99.90;;;;;;5037613;28;20484;-80
2022/11/24 14:10:31;;;;;;;;;;;3.20;99.90;;;;;;5037432;28;19953;-80
2022/11/24 14:13:15;;;;;;;;;;;3.20;99.90;;;;;;5038777;28;19959;-80
2022/11/24 14:15:40;;;;;;;;;;;3.10;99.90;;;;;;5037838;28;20076;-79
2022/11/24 14:18:16;;;;;;;;;;;3.00;99.90;;;;;;5037193;28;19948;-79
2022/11/24 14:20:42;;;;;;;;;;;3.00;99.90;;;;;;5039589;28;19948;-81
2022/11/24 14:23:09;;;;;;;;;;;3.10;99.90;;;;;;5038376;28;20384;-80
2022/11/24 14:25:34;;;;;;;;;;;3.10;99.90;;;;;;5037668;28;20360;-79
2022/11/24 14:28:00;;;;;;;;;;;3.10;99.90;;;;;;5035724;28;19960;-80
2022/11/24 14:30:25;;;;;;;;;;;3.10;99.90;;;;;;5035931;28;19913;-80
2022/11/24 14:32:55;;;;;;;;;;;3.00;99.90;;;;;;5037107;28;20008;-80
2022/11/24 14:35:22;;;;;;;;;;;3.00;99.90;;;;;;5036744;28;19921;-80
2022/11/24 14:37:47;;;;;;;;;;;3.00;99.90;;;;;;5036737;28;19909;-80
2022/11/24 14:40:32;;;;;;;;;;;3.00;99.90;;;;;;5035223;28;20404;-79
2022/11/24 14:42:57;;;;;;;;;;;3.00;99.90;;;;;;5037596;28;19936;-80
2022/11/24 14:45:23;;;;;;;;;;;3.00;99.90;;;;;;5037838;28;19921;-80
2022/11/24 14:47:48;;;;;;;;;;;3.00;99.90;;;;;;5053596;28;19921;-80
2022/11/24 14:50:15;;;;;;;;;;;3.00;99.90;;;;;;5037465;28;20338;-80